Skip Navigation Links Skip Navigation Links

Current Weather

DuPage County, West Chicago, Ill.

For information only: do not use for flight planning or navigation.
Latest weather
Observation time Friday, February 28, 2020 3:52 AM CST
Local time Friday, February 28, 2020 4:54 AM CST
Flight conditions Visual Meteorological Conditions
Winds
Wind direction West (270°)
Wind speed 6 mph
Visibility 10 mi.
Sky condition
Ceiling unlimited
Sky clear
Temperature 17°F
Dewpoint 9°F
Altimeter 30.02 in.Hg
Derived measurements
Relative humidity 70%
Wind chill 9°F
Density altitude -2219 ft.
Sea-level pressure 30.05 in.Hg
Remarks
Automated weather observing station with precipitation discriminator.
METAR KDPA 280952Z 27005KT 10SM CLR M08/M13 A3002 RMK AO2 SLP175 T10831128

Settings

Location code

InnerDrive.Weather 4.0.6770.0 Release CLR 4.0.30319.42000
Copyright ©2018 Inner Drive Technology. All rights reserved. Portions Copyright ©1986-2018 David Braverman.

Find weather

Site navigation


Skip Navigation Links

Place info

Page info

PayPal - The safer, easier way to pay online!

Return home.

Copyright ©2020 Inner Drive Technology. Purveyors of fine, hand-crafted computer software. Page printed 2020-02-28T10:54:10 UTC.